createdAt,value
2017-07-22T00:00:14.364Z,0
2017-07-22T00:00:54.876Z,0
2017-07-22T00:01:35.363Z,0
2017-07-22T00:02:15.877Z,0
2017-07-22T00:02:56.389Z,0
2017-07-22T00:03:36.903Z,0
2017-07-22T00:04:17.383Z,0
2017-07-22T00:04:57.879Z,0
2017-07-22T00:05:38.431Z,0
2017-07-22T00:06:18.880Z,0
2017-07-22T00:06:59.423Z,0
2017-07-22T00:07:39.925Z,0
2017-07-22T00:08:20.426Z,0
2017-07-22T00:09:00.931Z,0
2017-07-22T00:09:41.418Z,0
2017-07-22T00:10:21.873Z,0
2017-07-22T00:11:02.390Z,0
2017-07-22T00:11:42.893Z,0
2017-07-22T00:12:23.385Z,0
2017-07-22T00:13:03.860Z,0
2017-07-22T00:13:44.374Z,0
2017-07-22T00:14:24.845Z,0
2017-07-22T00:15:05.348Z,0
2017-07-22T00:15:45.849Z,0
2017-07-22T00:16:26.369Z,0
2017-07-22T00:17:06.879Z,0
2017-07-22T00:17:47.371Z,0
2017-07-22T00:18:27.851Z,0
2017-07-22T00:19:08.367Z,0
2017-07-22T00:19:48.847Z,0
2017-07-22T00:20:29.341Z,0
2017-07-22T00:21:09.900Z,0
2017-07-22T00:21:50.392Z,0
2017-07-22T00:22:30.878Z,0
2017-07-22T00:23:11.342Z,0
2017-07-22T00:23:52.032Z,0
2017-07-22T00:24:32.576Z,0
2017-07-22T00:25:13.084Z,0
2017-07-22T00:25:53.564Z,0
2017-07-22T00:26:34.017Z,0
2017-07-22T00:27:14.616Z,0
2017-07-22T00:27:55.190Z,0
2017-07-22T00:28:35.619Z,0
2017-07-22T00:29:16.120Z,0
2017-07-22T00:29:56.643Z,0
2017-07-22T00:30:37.113Z,0
2017-07-22T00:31:17.603Z,0
2017-07-22T00:31:58.144Z,0
2017-07-22T00:32:38.593Z,0
2017-07-22T00:33:19.083Z,0
2017-07-22T00:33:59.600Z,0
2017-07-22T00:34:40.100Z,0
2017-07-22T00:35:20.623Z,0
2017-07-22T00:36:01.117Z,0
2017-07-22T00:36:42.102Z,0
2017-07-22T00:37:22.665Z,0
2017-07-22T00:38:03.167Z,0
2017-07-22T00:38:43.667Z,0
2017-07-22T00:39:24.141Z,0
2017-07-22T00:40:04.641Z,0
2017-07-22T00:40:45.086Z,0
2017-07-22T00:41:25.633Z,0
2017-07-22T00:42:06.130Z,0
2017-07-22T00:42:46.604Z,0
2017-07-22T00:43:27.078Z,0
2017-07-22T00:44:07.603Z,0
2017-07-22T00:44:48.129Z,0
2017-07-22T00:45:28.592Z,0
2017-07-22T00:46:09.055Z,0
2017-07-22T00:46:49.549Z,0
2017-07-22T00:47:30.095Z,0
2017-07-22T00:48:10.575Z,0
2017-07-22T00:48:51.108Z,0
2017-07-22T00:49:31.584Z,0
2017-07-22T00:50:12.081Z,0
2017-07-22T00:50:52.566Z,0
2017-07-22T00:51:33.101Z,0
2017-07-22T00:52:13.605Z,0
2017-07-22T00:52:54.101Z,0
2017-07-22T00:53:34.687Z,0
2017-07-22T00:54:15.131Z,0
2017-07-22T00:54:55.661Z,0
2017-07-22T00:55:36.136Z,0
2017-07-22T00:56:16.656Z,0
2017-07-22T00:56:57.170Z,0
2017-07-22T00:57:37.656Z,0
2017-07-22T00:58:18.129Z,0
2017-07-22T00:58:58.738Z,0
2017-07-22T00:59:39.295Z,0
2017-07-22T01:00:19.806Z,0
2017-07-22T01:01:00.293Z,0
2017-07-22T01:01:40.776Z,0
2017-07-22T01:02:21.310Z,0
2017-07-22T01:03:01.821Z,0
2017-07-22T01:03:42.335Z,0
2017-07-22T01:04:22.793Z,0
2017-07-22T01:05:03.266Z,0
2017-07-22T01:05:43.768Z,0
2017-07-22T01:06:24.236Z,0
2017-07-22T01:07:04.699Z,0
2017-07-22T01:07:45.759Z,0
2017-07-22T01:08:26.303Z,0
2017-07-22T01:09:06.779Z,0
2017-07-22T01:09:47.247Z,0
2017-07-22T01:10:27.779Z,0
2017-07-22T01:11:08.250Z,0
2017-07-22T01:11:48.738Z,0
2017-07-22T01:12:29.194Z,0
2017-07-22T01:13:09.718Z,0
2017-07-22T01:13:50.213Z,0
2017-07-22T01:14:30.702Z,0
2017-07-22T01:15:11.178Z,0
2017-07-22T01:15:51.658Z,0
2017-07-22T01:16:32.162Z,0
2017-07-22T01:17:12.641Z,0
2017-07-22T01:17:53.173Z,0
2017-07-22T01:18:33.632Z,0
2017-07-22T01:19:14.176Z,0
2017-07-22T01:19:54.630Z,0
2017-07-22T01:20:35.158Z,0
2017-07-22T01:21:15.646Z,0
2017-07-22T01:21:56.122Z,0
2017-07-22T01:22:36.568Z,0
2017-07-22T01:23:17.074Z,0
2017-07-22T01:23:57.568Z,0
2017-07-22T01:24:38.048Z,0
2017-07-22T01:25:18.548Z,0
2017-07-22T01:25:59.087Z,0
2017-07-22T01:26:39.556Z,0
2017-07-22T01:27:20.139Z,0
2017-07-22T01:28:00.526Z,0
2017-07-22T01:28:40.991Z,0
2017-07-22T01:29:21.490Z,0
2017-07-22T01:30:01.995Z,0
2017-07-22T01:30:42.497Z,0
2017-07-22T01:31:22.974Z,0
2017-07-22T01:32:03.448Z,0
2017-07-22T01:32:43.988Z,0
2017-07-22T01:33:24.496Z,0
2017-07-22T01:34:04.997Z,0
2017-07-22T01:34:45.483Z,0
2017-07-22T01:35:26.018Z,0
2017-07-22T01:36:06.495Z,0
2017-07-22T01:36:46.965Z,0
2017-07-22T01:37:27.451Z,0
2017-07-22T01:38:07.963Z,0
2017-07-22T01:38:48.474Z,0
2017-07-22T01:39:28.947Z,0
2017-07-22T01:40:09.439Z,0
2017-07-22T01:40:49.951Z,0
2017-07-22T01:41:30.409Z,0
2017-07-22T01:42:10.966Z,0
2017-07-22T01:42:51.403Z,0
2017-07-22T01:43:31.969Z,0
2017-07-22T01:44:12.423Z,0
2017-07-22T01:44:52.881Z,0
2017-07-22T01:45:33.388Z,0
2017-07-22T01:46:13.905Z,0
2017-07-22T01:46:54.390Z,0
2017-07-22T01:47:34.883Z,0
2017-07-22T01:48:15.395Z,0
2017-07-22T01:48:55.869Z,0
2017-07-22T01:49:36.356Z,0
2017-07-22T01:50:16.863Z,0
2017-07-22T01:50:57.366Z,0
2017-07-22T01:51:37.866Z,0
2017-07-22T01:52:18.395Z,0
2017-07-22T01:52:58.850Z,0
2017-07-22T01:53:39.363Z,0
2017-07-22T01:54:19.858Z,0
2017-07-22T01:55:00.383Z,0
2017-07-22T01:55:40.865Z,0
2017-07-22T01:56:21.376Z,0
2017-07-22T01:57:01.893Z,0
2017-07-22T01:57:42.440Z,0
2017-07-22T01:58:22.931Z,0
2017-07-22T01:59:03.384Z,0
2017-07-22T01:59:43.920Z,0
2017-07-22T02:00:24.418Z,0
2017-07-22T02:01:04.947Z,0
2017-07-22T02:01:45.416Z,0
2017-07-22T02:02:25.981Z,0
2017-07-22T02:03:06.428Z,0
2017-07-22T02:03:46.940Z,0
2017-07-22T02:04:27.465Z,0
2017-07-22T02:05:07.984Z,0
2017-07-22T02:05:48.437Z,0
2017-07-22T02:06:28.949Z,0
2017-07-22T02:07:09.434Z,0
2017-07-22T02:07:49.952Z,0
2017-07-22T02:08:30.484Z,0
2017-07-22T02:09:10.980Z,0
2017-07-22T02:09:51.500Z,0
2017-07-22T02:10:31.991Z,0
2017-07-22T02:11:12.469Z,0
2017-07-22T02:11:53.005Z,0
2017-07-22T02:12:33.515Z,0
2017-07-22T02:13:14.018Z,0
2017-07-22T02:13:54.527Z,0
2017-07-22T02:14:34.976Z,0
2017-07-22T02:15:15.527Z,0
2017-07-22T02:15:56.020Z,0
2017-07-22T02:16:36.467Z,0
2017-07-22T02:17:16.952Z,0
2017-07-22T02:17:57.484Z,0
2017-07-22T02:18:38.016Z,0
2017-07-22T02:19:18.481Z,0
2017-07-22T02:19:59.001Z,0
2017-07-22T02:20:39.506Z,0
2017-07-22T02:21:19.998Z,0
2017-07-22T02:22:00.508Z,0
2017-07-22T02:22:40.974Z,0
2017-07-22T02:23:21.502Z,0
2017-07-22T02:24:01.969Z,0
2017-07-22T02:24:42.489Z,0
2017-07-22T02:25:22.976Z,0
2017-07-22T02:26:03.477Z,0
2017-07-22T02:26:43.962Z,0
2017-07-22T02:27:24.522Z,0
2017-07-22T02:28:04.974Z,0
2017-07-22T02:28:45.448Z,0
2017-07-22T02:29:25.949Z,0
2017-07-22T02:30:06.483Z,0
2017-07-22T02:30:46.971Z,0
2017-07-22T02:31:27.476Z,0
2017-07-22T02:32:07.957Z,0
2017-07-22T02:32:48.450Z,0
2017-07-22T02:33:28.954Z,0
2017-07-22T02:34:09.465Z,0
2017-07-22T02:34:49.993Z,0
2017-07-22T02:35:30.470Z,0
2017-07-22T02:36:11.100Z,0
2017-07-22T02:36:51.597Z,0
2017-07-22T02:37:32.100Z,0
2017-07-22T02:38:12.593Z,0
2017-07-22T02:38:53.245Z,0
2017-07-22T02:39:33.701Z,0
2017-07-22T02:40:14.215Z,0
2017-07-22T02:40:54.731Z,0
2017-07-22T02:41:35.247Z,0
2017-07-22T02:42:15.751Z,0
2017-07-22T02:42:56.263Z,0
2017-07-22T02:43:36.760Z,0
2017-07-22T02:44:17.301Z,0
2017-07-22T02:44:57.813Z,0
2017-07-22T02:45:38.336Z,0
2017-07-22T02:46:18.809Z,0
2017-07-22T02:46:59.314Z,0
2017-07-22T02:47:39.905Z,0
2017-07-22T02:48:20.353Z,0
2017-07-22T02:49:00.878Z,0
2017-07-22T02:49:41.339Z,0
2017-07-22T02:50:21.834Z,0
2017-07-22T02:51:02.388Z,0
2017-07-22T02:51:42.873Z,0
2017-07-22T02:52:23.369Z,0
2017-07-22T02:53:03.914Z,0
2017-07-22T02:53:44.455Z,0
2017-07-22T02:54:24.873Z,0
2017-07-22T02:55:05.375Z,0
2017-07-22T02:55:45.862Z,0
2017-07-22T02:56:26.396Z,0
2017-07-22T02:57:06.878Z,0
2017-07-22T02:57:47.369Z,0
2017-07-22T02:58:27.861Z,0
2017-07-22T02:59:08.372Z,0
2017-07-22T02:59:48.879Z,0
2017-07-22T03:00:29.419Z,0
2017-07-22T03:01:09.925Z,0
2017-07-22T03:01:50.444Z,0
2017-07-22T03:02:30.920Z,0
2017-07-22T03:03:11.421Z,0
2017-07-22T03:03:51.895Z,0
2017-07-22T03:04:32.415Z,0
2017-07-22T03:05:12.933Z,0
2017-07-22T03:05:53.422Z,0
2017-07-22T03:06:33.893Z,0
2017-07-22T03:07:14.540Z,0
2017-07-22T03:07:54.949Z,0
2017-07-22T03:08:35.422Z,0
2017-07-22T03:09:15.950Z,0
2017-07-22T03:09:56.448Z,0
2017-07-22T03:10:36.968Z,0
2017-07-22T03:11:17.437Z,0
2017-07-22T03:11:57.951Z,0
2017-07-22T03:12:38.471Z,0
2017-07-22T03:13:18.966Z,0
2017-07-22T03:13:59.454Z,0
2017-07-22T03:14:40.075Z,0
2017-07-22T03:15:20.549Z,0
2017-07-22T03:16:01.030Z,0
2017-07-22T03:16:41.573Z,0
2017-07-22T03:17:22.089Z,0
2017-07-22T03:18:02.536Z,0
2017-07-22T03:18:43.033Z,0
2017-07-22T03:19:23.537Z,0
2017-07-22T03:20:04.056Z,0
2017-07-22T03:20:44.526Z,0
2017-07-22T03:21:25.067Z,0
2017-07-22T03:22:05.549Z,0
2017-07-22T03:22:46.058Z,0
2017-07-22T03:23:26.602Z,0
2017-07-22T03:24:07.066Z,0
2017-07-22T03:24:47.598Z,0
2017-07-22T03:25:28.069Z,0
2017-07-22T03:26:08.565Z,0
2017-07-22T03:26:49.073Z,0
2017-07-22T03:27:29.602Z,0
2017-07-22T03:28:10.095Z,0
2017-07-22T03:28:50.624Z,0
2017-07-22T03:29:31.111Z,0
2017-07-22T03:30:11.607Z,0
2017-07-22T03:30:52.130Z,0
2017-07-22T03:31:32.615Z,0
2017-07-22T03:32:13.144Z,0
2017-07-22T03:32:53.622Z,0
2017-07-22T03:33:34.119Z,0
2017-07-22T03:34:14.647Z,0
2017-07-22T03:34:55.167Z,0
2017-07-22T03:35:35.655Z,0
2017-07-22T03:36:16.213Z,0
2017-07-22T03:36:56.674Z,0
2017-07-22T03:37:37.192Z,0
2017-07-22T03:38:17.859Z,0
2017-07-22T03:38:58.206Z,0
2017-07-22T03:39:38.712Z,0
2017-07-22T03:40:19.185Z,0
2017-07-22T03:40:59.667Z,0
2017-07-22T03:41:40.196Z,0
2017-07-22T03:42:20.718Z,0
2017-07-22T03:43:01.229Z,0
2017-07-22T03:43:41.705Z,0
2017-07-22T03:44:22.225Z,0
2017-07-22T03:45:02.736Z,0
2017-07-22T03:45:43.226Z,0
2017-07-22T03:46:23.755Z,0
2017-07-22T03:47:04.354Z,0
2017-07-22T03:47:44.742Z,0
2017-07-22T03:48:25.378Z,0
2017-07-22T03:49:05.918Z,0
2017-07-22T03:49:46.343Z,0
2017-07-22T03:50:26.837Z,0
2017-07-22T03:51:07.311Z,5
2017-07-22T03:51:47.810Z,5
2017-07-22T03:52:28.341Z,5
2017-07-22T03:53:08.971Z,5
2017-07-22T03:53:49.801Z,5
2017-07-22T03:54:30.224Z,5
2017-07-22T03:55:10.718Z,5
2017-07-22T03:55:51.225Z,5
2017-07-22T03:56:31.732Z,5
2017-07-22T03:57:12.354Z,5
2017-07-22T03:57:52.936Z,5
2017-07-22T03:58:33.422Z,5
2017-07-22T03:59:13.927Z,5
2017-07-22T03:59:54.448Z,5
2017-07-22T04:00:35.024Z,5
2017-07-22T04:01:15.424Z,5
2017-07-22T04:01:55.894Z,5
2017-07-22T04:02:36.414Z,5
2017-07-22T04:03:16.931Z,5
2017-07-22T04:03:57.524Z,5
2017-07-22T04:04:38.018Z,5
2017-07-22T04:05:18.670Z,5
2017-07-22T04:05:59.418Z,5
2017-07-22T04:06:40.097Z,5
2017-07-22T04:07:20.639Z,5
2017-07-22T04:08:01.104Z,5
2017-07-22T04:08:41.637Z,5
2017-07-22T04:09:22.205Z,5
2017-07-22T04:10:02.633Z,5
2017-07-22T04:10:43.177Z,5
2017-07-22T04:11:23.672Z,5
2017-07-22T04:12:04.146Z,5
2017-07-22T04:12:44.696Z,5
2017-07-22T04:13:25.184Z,5
2017-07-22T04:14:05.666Z,10
2017-07-22T04:14:46.128Z,10
2017-07-22T04:15:26.635Z,10
2017-07-22T04:16:07.118Z,10
2017-07-22T04:16:47.693Z,10
2017-07-22T04:17:28.204Z,10
2017-07-22T04:18:08.734Z,10
2017-07-22T04:18:49.214Z,10
2017-07-22T04:19:29.662Z,10
2017-07-22T04:20:10.177Z,10
2017-07-22T04:20:50.683Z,10
2017-07-22T04:21:31.235Z,10
2017-07-22T04:22:11.749Z,10
2017-07-22T04:22:52.231Z,10
2017-07-22T04:23:32.731Z,10
2017-07-22T04:24:13.217Z,15
2017-07-22T04:24:53.761Z,15
2017-07-22T04:25:34.220Z,15
2017-07-22T04:26:14.763Z,15
2017-07-22T04:26:55.257Z,15
2017-07-22T04:27:35.752Z,15
2017-07-22T04:28:16.271Z,15
2017-07-22T04:28:56.781Z,15
2017-07-22T04:29:37.253Z,15
2017-07-22T04:30:17.773Z,20
2017-07-22T04:30:58.418Z,20
2017-07-22T04:31:38.905Z,20
2017-07-22T04:32:19.394Z,20
2017-07-22T04:32:59.974Z,25
2017-07-22T04:33:40.436Z,25
2017-07-22T04:34:20.890Z,25
2017-07-22T04:35:01.454Z,30
2017-07-22T04:35:42.006Z,30
2017-07-22T04:36:22.464Z,35
2017-07-22T04:37:03.000Z,35
2017-07-22T04:37:43.521Z,40
2017-07-22T04:38:24.202Z,40
2017-07-22T04:39:04.724Z,45
2017-07-22T04:39:45.175Z,45
2017-07-22T04:40:25.674Z,45
2017-07-22T04:41:06.200Z,45
2017-07-22T04:41:46.690Z,40
2017-07-22T04:42:27.174Z,40
2017-07-22T04:43:07.744Z,40
2017-07-22T04:43:48.176Z,40
2017-07-22T04:44:28.673Z,40
2017-07-22T04:45:09.215Z,40
2017-07-22T04:45:49.706Z,45
2017-07-22T04:46:30.191Z,45
2017-07-22T04:47:10.608Z,45
2017-07-22T04:47:51.113Z,50
2017-07-22T04:48:31.598Z,55
2017-07-22T04:49:12.331Z,60
2017-07-22T04:49:52.831Z,65
2017-07-22T04:50:33.346Z,70
2017-07-22T04:51:13.840Z,70
2017-07-22T04:51:54.358Z,75
2017-07-22T04:52:34.979Z,75
2017-07-22T04:53:15.446Z,80
2017-07-22T04:53:56.006Z,80
2017-07-22T04:54:36.496Z,80
2017-07-22T04:55:17.001Z,80
2017-07-22T04:55:57.480Z,85
2017-07-22T04:56:37.952Z,85
2017-07-22T04:57:18.446Z,85
2017-07-22T04:57:58.951Z,90
2017-07-22T04:58:39.447Z,95
2017-07-22T04:59:19.934Z,95
2017-07-22T05:00:00.449Z,100
2017-07-22T05:00:41.034Z,105
2017-07-22T05:01:21.519Z,105
2017-07-22T05:02:02.016Z,110
2017-07-22T05:02:42.535Z,115
2017-07-22T05:03:23.069Z,115
2017-07-22T05:04:03.550Z,120
2017-07-22T05:04:44.070Z,120
2017-07-22T05:05:24.559Z,125
2017-07-22T05:06:05.047Z,125
2017-07-22T05:06:45.528Z,125
2017-07-22T05:07:26.031Z,125
2017-07-22T05:08:06.553Z,125
2017-07-22T05:08:47.036Z,135
2017-07-22T05:09:27.595Z,135
2017-07-22T05:10:08.065Z,135
2017-07-22T05:10:48.570Z,140
2017-07-22T05:11:29.112Z,140
2017-07-22T05:12:09.593Z,135
2017-07-22T05:12:50.134Z,140
2017-07-22T05:13:30.641Z,150
2017-07-22T05:14:11.164Z,155
2017-07-22T05:14:51.674Z,170
2017-07-22T05:15:32.157Z,180
2017-07-22T05:16:12.643Z,190
2017-07-22T05:16:53.135Z,190
2017-07-22T05:17:33.638Z,185
2017-07-22T05:18:14.117Z,175
2017-07-22T05:18:54.640Z,180
2017-07-22T05:19:35.123Z,175
2017-07-22T05:20:15.632Z,180
2017-07-22T05:20:56.100Z,180
2017-07-22T05:21:36.607Z,190
2017-07-22T05:22:17.090Z,190
2017-07-22T05:22:57.608Z,190
2017-07-22T05:23:38.060Z,190
2017-07-22T05:24:18.581Z,195
2017-07-22T05:24:59.092Z,200
2017-07-22T05:25:39.569Z,200
2017-07-22T05:26:20.105Z,205
2017-07-22T05:27:00.530Z,205
2017-07-22T05:27:41.043Z,205
2017-07-22T05:28:21.582Z,205
2017-07-22T05:29:02.051Z,210
2017-07-22T05:29:42.572Z,205
2017-07-22T05:30:23.064Z,200
2017-07-22T05:31:03.553Z,200
2017-07-22T05:31:44.084Z,190
2017-07-22T05:32:24.567Z,185
2017-07-22T05:33:05.049Z,180
2017-07-22T05:33:45.637Z,175
2017-07-22T05:34:26.127Z,170
2017-07-22T05:35:06.666Z,170
2017-07-22T05:35:47.172Z,170
2017-07-22T05:36:27.614Z,170
2017-07-22T05:37:08.128Z,170
2017-07-22T05:37:48.617Z,175
2017-07-22T05:38:29.132Z,175
2017-07-22T05:39:09.630Z,180
2017-07-22T05:39:50.170Z,185
2017-07-22T05:40:30.737Z,195
2017-07-22T05:41:11.210Z,195
2017-07-22T05:41:51.802Z,200
2017-07-22T05:42:32.317Z,200
2017-07-22T05:43:12.942Z,205
2017-07-22T05:43:53.405Z,205
2017-07-22T05:44:33.894Z,215
2017-07-22T05:45:14.444Z,210
2017-07-22T05:45:54.979Z,215
2017-07-22T05:46:35.525Z,225
2017-07-22T05:47:16.014Z,230
2017-07-22T05:47:56.494Z,235
2017-07-22T05:48:37.020Z,235
2017-07-22T05:49:17.485Z,230
2017-07-22T05:49:57.967Z,230
2017-07-22T05:50:38.426Z,230
2017-07-22T05:51:19.263Z,230
2017-07-22T05:51:59.803Z,240
2017-07-22T05:52:40.290Z,245
2017-07-22T05:53:20.774Z,235
2017-07-22T05:54:01.231Z,265
2017-07-22T05:54:41.747Z,265
2017-07-22T05:55:22.314Z,295
2017-07-22T05:56:02.956Z,285
2017-07-22T05:56:43.459Z,280
2017-07-22T05:57:23.976Z,345
2017-07-22T05:58:04.515Z,335
2017-07-22T05:58:44.985Z,330
2017-07-22T05:59:25.501Z,355
2017-07-22T06:00:05.984Z,345
2017-07-22T06:00:46.515Z,355
2017-07-22T06:01:27.013Z,350
2017-07-22T06:02:07.598Z,350
2017-07-22T06:02:48.101Z,355
2017-07-22T06:03:28.620Z,355
2017-07-22T06:04:09.109Z,350
2017-07-22T06:04:49.605Z,350
2017-07-22T06:05:30.121Z,350
2017-07-22T06:06:10.770Z,350
2017-07-22T06:06:51.146Z,350
2017-07-22T06:07:31.640Z,350
2017-07-22T06:08:12.159Z,350
2017-07-22T06:08:52.825Z,350
2017-07-22T06:09:33.228Z,350
2017-07-22T06:10:13.783Z,350
2017-07-22T06:10:54.218Z,355
2017-07-22T06:11:34.716Z,360
2017-07-22T06:12:15.173Z,360
2017-07-22T06:12:55.672Z,360
2017-07-22T06:13:36.152Z,360
2017-07-22T06:14:17.651Z,355
2017-07-22T06:14:58.175Z,360
2017-07-22T06:15:39.518Z,355
2017-07-22T06:16:20.002Z,345
2017-07-22T06:17:00.544Z,335
2017-07-22T06:17:41.044Z,330
2017-07-22T06:18:21.501Z,335
2017-07-22T06:19:02.041Z,335
2017-07-22T06:19:42.543Z,335
2017-07-22T06:20:23.042Z,335
2017-07-22T06:21:03.577Z,330
2017-07-22T06:21:44.078Z,330
2017-07-22T06:22:25.270Z,325
2017-07-22T06:23:05.767Z,325
2017-07-22T06:23:46.296Z,320
2017-07-22T06:24:26.947Z,315
2017-07-22T06:25:07.459Z,310
2017-07-22T06:25:48.036Z,305
2017-07-22T06:26:31.851Z,305
2017-07-22T06:27:12.416Z,305
2017-07-22T06:29:58.963Z,300
2017-07-22T06:30:39.501Z,300
2017-07-22T06:31:20.157Z,295
2017-07-22T06:32:00.642Z,300
2017-07-22T06:32:41.926Z,295
2017-07-22T06:33:22.499Z,295
2017-07-22T06:34:02.920Z,295
2017-07-22T06:34:43.407Z,295
2017-07-22T06:35:23.975Z,295
2017-07-22T06:36:04.482Z,295
2017-07-22T06:36:44.968Z,300
2017-07-22T06:37:25.464Z,295
2017-07-22T06:38:05.977Z,290
2017-07-22T06:38:46.491Z,290
2017-07-22T06:39:26.973Z,290
2017-07-22T06:40:07.496Z,290
2017-07-22T06:40:47.984Z,285
2017-07-22T06:41:28.508Z,285
2017-07-22T06:42:09.005Z,285
2017-07-22T06:42:49.689Z,280
2017-07-22T06:43:29.968Z,280
2017-07-22T06:44:10.456Z,275
2017-07-22T06:44:50.967Z,275
2017-07-22T06:45:31.449Z,275
2017-07-22T06:46:11.965Z,280
2017-07-22T06:46:52.496Z,280
2017-07-22T06:47:32.977Z,275
2017-07-22T06:48:13.457Z,275
2017-07-22T06:48:54.079Z,270
2017-07-22T06:49:34.530Z,270
2017-07-22T06:50:15.005Z,270
2017-07-22T06:50:56.479Z,275
2017-07-22T06:51:36.931Z,275
2017-07-22T06:52:17.528Z,270
2017-07-22T06:52:57.979Z,270
2017-07-22T06:53:38.431Z,275
2017-07-22T06:54:18.966Z,280
2017-07-22T06:54:59.473Z,285
2017-07-22T06:55:39.958Z,280
2017-07-22T06:56:20.475Z,290
2017-07-22T06:57:01.022Z,290
2017-07-22T06:57:41.492Z,280
2017-07-22T06:58:22.010Z,285
2017-07-22T06:59:02.507Z,280
2017-07-22T06:59:43.022Z,280
2017-07-22T07:00:23.512Z,280
2017-07-22T07:01:04.006Z,280
2017-07-22T07:01:44.575Z,280
2017-07-22T07:02:25.271Z,280
2017-07-22T07:03:05.825Z,280
2017-07-22T07:03:46.599Z,280
2017-07-22T07:04:27.035Z,280
2017-07-22T07:05:07.564Z,280
2017-07-22T07:05:48.511Z,280
2017-07-22T07:06:28.953Z,280
2017-07-22T07:07:09.560Z,280
2017-07-22T07:07:49.977Z,280
2017-07-22T07:08:30.490Z,280
2017-07-22T07:09:10.993Z,280
2017-07-22T07:09:51.523Z,280
2017-07-22T07:10:32.017Z,280
2017-07-22T07:11:12.506Z,280
2017-07-22T07:11:52.983Z,280
2017-07-22T07:12:33.559Z,280
2017-07-22T07:13:15.717Z,280
2017-07-22T07:13:56.773Z,280
2017-07-22T07:14:37.503Z,280
2017-07-22T07:15:17.975Z,275
2017-07-22T07:15:58.463Z,280
2017-07-22T07:16:39.026Z,280
2017-07-22T07:17:19.522Z,275
2017-07-22T07:17:59.996Z,275
2017-07-22T07:18:40.562Z,275
2017-07-22T07:19:21.073Z,275
2017-07-22T07:20:01.596Z,275
2017-07-22T07:20:42.049Z,275
2017-07-22T07:21:22.625Z,275
2017-07-22T07:22:03.074Z,275
2017-07-22T07:22:43.568Z,280
2017-07-22T07:23:24.119Z,280
2017-07-22T07:24:04.667Z,280
2017-07-22T07:24:45.108Z,275
2017-07-22T07:25:25.602Z,275
2017-07-22T07:26:06.114Z,275
2017-07-22T07:26:46.620Z,275
2017-07-22T07:27:27.100Z,275
2017-07-22T07:28:07.618Z,275
2017-07-22T07:28:48.116Z,275
2017-07-22T07:29:28.640Z,275
2017-07-22T07:30:09.119Z,275
2017-07-22T07:30:49.635Z,270
2017-07-22T07:31:30.114Z,270
2017-07-22T07:32:10.658Z,270
2017-07-22T07:32:51.124Z,270
2017-07-22T07:33:32.557Z,270
2017-07-22T07:34:13.065Z,270
2017-07-22T07:34:53.579Z,270
2017-07-22T07:35:34.100Z,270
2017-07-22T07:36:14.551Z,270
2017-07-22T07:36:55.324Z,270
2017-07-22T07:37:35.858Z,270
2017-07-22T07:38:16.315Z,270
2017-07-22T07:38:56.866Z,270
2017-07-22T07:39:37.365Z,265
2017-07-22T07:40:17.867Z,265
2017-07-22T07:40:58.359Z,265
2017-07-22T07:41:38.881Z,265
2017-07-22T07:42:19.359Z,265
2017-07-22T07:42:59.930Z,265
2017-07-22T07:43:40.389Z,260
2017-07-22T07:44:20.973Z,260
2017-07-22T07:45:01.395Z,260
2017-07-22T07:45:41.917Z,260
2017-07-22T07:46:22.477Z,260
2017-07-22T07:47:02.938Z,260
2017-07-22T07:47:43.415Z,255
2017-07-22T07:48:23.936Z,260
2017-07-22T07:49:04.423Z,255
2017-07-22T07:49:44.915Z,255
2017-07-22T07:50:25.412Z,255
2017-07-22T07:51:05.960Z,250
2017-07-22T07:51:46.445Z,250
2017-07-22T07:52:26.926Z,250
2017-07-22T07:53:07.430Z,250
2017-07-22T07:53:47.931Z,250
2017-07-22T07:54:28.490Z,250
2017-07-22T07:55:08.954Z,245
2017-07-22T07:55:49.440Z,245
2017-07-22T07:56:29.930Z,235
2017-07-22T07:57:10.425Z,235
2017-07-22T07:57:50.895Z,250
2017-07-22T07:58:31.399Z,245
2017-07-22T07:59:11.929Z,245
2017-07-22T07:59:52.413Z,245
2017-07-22T08:00:32.971Z,240
2017-07-22T08:01:13.466Z,240
2017-07-22T08:01:53.957Z,235
2017-07-22T08:02:34.494Z,235
2017-07-22T08:03:15.034Z,240
2017-07-22T08:03:55.579Z,235
2017-07-22T08:04:36.080Z,235
2017-07-22T08:05:16.612Z,235
2017-07-22T08:05:57.057Z,235
2017-07-22T08:06:37.682Z,230
2017-07-22T08:07:18.162Z,230
2017-07-22T08:07:58.655Z,225
2017-07-22T08:08:39.148Z,230
2017-07-22T08:09:19.848Z,225
2017-07-22T08:10:00.366Z,225
2017-07-22T08:10:40.855Z,225
2017-07-22T08:11:21.343Z,220
2017-07-22T08:12:01.849Z,195
2017-07-22T08:12:42.317Z,220
2017-07-22T08:13:22.885Z,215
2017-07-22T08:14:03.624Z,220
2017-07-22T08:14:44.097Z,225
2017-07-22T08:15:24.598Z,230
2017-07-22T08:16:05.103Z,200
2017-07-22T08:16:45.650Z,245
2017-07-22T08:17:26.297Z,235
2017-07-22T08:18:06.775Z,230
2017-07-22T08:18:47.255Z,185
2017-07-22T08:19:28.594Z,170
2017-07-22T08:20:09.148Z,235
2017-07-22T08:20:49.635Z,230
2017-07-22T08:21:30.133Z,230
2017-07-22T08:22:10.668Z,225
2017-07-22T08:22:51.139Z,220
2017-07-22T08:23:31.694Z,215
2017-07-22T08:24:12.239Z,175
2017-07-22T08:24:52.671Z,210
2017-07-22T08:25:33.154Z,210
2017-07-22T08:26:13.682Z,220
2017-07-22T08:26:54.215Z,210
2017-07-22T08:27:34.718Z,205
2017-07-22T08:28:15.211Z,200
2017-07-22T08:28:55.774Z,200
2017-07-22T08:29:36.254Z,200
2017-07-22T08:30:16.780Z,200
2017-07-22T08:30:57.250Z,195
2017-07-22T08:31:37.786Z,195
2017-07-22T08:32:18.249Z,200
2017-07-22T08:32:58.733Z,190
2017-07-22T08:33:39.248Z,210
2017-07-22T08:34:19.786Z,215
2017-07-22T08:35:00.420Z,220
2017-07-22T08:35:40.872Z,215
2017-07-22T08:36:21.443Z,220
2017-07-22T08:37:01.982Z,195
2017-07-22T08:37:42.510Z,220
2017-07-22T08:38:23.117Z,220
2017-07-22T08:39:03.580Z,235
2017-07-22T08:39:44.081Z,235
2017-07-22T08:40:24.580Z,240
2017-07-22T08:41:05.184Z,245
2017-07-22T08:41:45.612Z,240
2017-07-22T08:42:26.209Z,255
2017-07-22T08:43:06.745Z,240
2017-07-22T08:43:47.328Z,265
2017-07-22T08:44:27.815Z,270
2017-07-22T08:45:08.358Z,265
2017-07-22T08:45:48.904Z,260
2017-07-22T08:46:29.439Z,230
2017-07-22T08:47:09.992Z,240
2017-07-22T08:47:50.569Z,215
2017-07-22T08:48:31.077Z,225
2017-07-22T08:49:12.445Z,210
2017-07-22T08:49:52.954Z,200
2017-07-22T08:50:33.401Z,185
2017-07-22T08:51:13.942Z,190
2017-07-22T08:51:54.442Z,195
2017-07-22T08:52:34.940Z,220
2017-07-22T08:53:15.503Z,195
2017-07-22T08:53:56.057Z,200
2017-07-22T08:54:36.557Z,205
2017-07-22T08:55:17.035Z,205
2017-07-22T08:55:57.565Z,215
2017-07-22T08:56:38.040Z,230
2017-07-22T08:57:18.548Z,240
2017-07-22T08:57:59.106Z,240
2017-07-22T08:58:39.714Z,240
2017-07-22T08:59:20.320Z,240
2017-07-22T09:00:00.742Z,235
2017-07-22T09:00:41.209Z,235
2017-07-22T09:01:21.795Z,235
2017-07-22T09:02:02.245Z,230
2017-07-22T09:02:42.877Z,220
2017-07-22T09:03:23.374Z,205
2017-07-22T09:04:03.862Z,190
2017-07-22T09:04:44.340Z,190
2017-07-22T09:05:25.367Z,185
2017-07-22T09:06:06.419Z,190
2017-07-22T09:06:46.362Z,195
2017-07-22T09:07:26.876Z,195
2017-07-22T09:08:07.408Z,195
2017-07-22T09:08:47.888Z,195
2017-07-22T09:09:28.478Z,200
2017-07-22T09:10:08.979Z,200
2017-07-22T09:10:49.525Z,200
2017-07-22T09:11:30.001Z,200
2017-07-22T09:12:10.548Z,195
2017-07-22T09:12:51.122Z,185
2017-07-22T09:13:31.635Z,185
2017-07-22T09:14:12.124Z,185
2017-07-22T09:14:52.623Z,180
2017-07-22T09:15:33.200Z,180
2017-07-22T09:16:13.710Z,180
2017-07-22T09:16:54.282Z,180
2017-07-22T09:17:34.756Z,180
2017-07-22T09:18:15.245Z,175
2017-07-22T09:18:55.842Z,175
2017-07-22T09:19:36.317Z,170
2017-07-22T09:20:16.840Z,175
2017-07-22T09:20:57.358Z,170
2017-07-22T09:21:37.883Z,170
2017-07-22T09:22:18.460Z,165
2017-07-22T09:22:58.970Z,165
2017-07-22T09:23:39.505Z,165
2017-07-22T09:24:19.974Z,165
2017-07-22T09:25:00.484Z,165
2017-07-22T09:25:40.988Z,165
2017-07-22T09:26:21.587Z,165
2017-07-22T09:27:02.045Z,170
2017-07-22T09:27:43.417Z,170
2017-07-22T09:28:23.920Z,170
2017-07-22T09:29:04.448Z,170
2017-07-22T09:29:44.985Z,170
2017-07-22T09:30:25.443Z,170
2017-07-22T09:31:06.084Z,180
2017-07-22T09:31:46.913Z,180
2017-07-22T09:32:27.470Z,180
2017-07-22T09:33:07.950Z,190
2017-07-22T09:33:48.662Z,195
2017-07-22T09:34:29.145Z,180
2017-07-22T09:35:09.654Z,180
2017-07-22T09:35:50.407Z,180
2017-07-22T09:36:30.928Z,175
2017-07-22T09:37:11.510Z,175
2017-07-22T09:37:52.007Z,180
2017-07-22T09:38:32.474Z,195
2017-07-22T09:39:13.015Z,200